New Iberia, LA (70560)

5:29 PM CST on February 06, 2016 (GMT -0600)
Belair | | Change Station
CLOSE
Current Station
Personal Weather Station
Location: New Iberia, LA
Elevation: 18 ft
Nearby Weather Stations

Elev 18 ft 29.99 °N, 91.77 °W | Updated 0 second ago

Partly Cloudy
Partly Cloudy
51.8 °F
Feels Like 51.8 °F
N
0.0
Wind Variable Wind from NNW
Gusts 0.0 mph

Today
High -- | Low -- °F
--% Chance of Precip.
Yesterday
High -- | Low -- °F
Precip. -- in
Pressure 30.28 in
Visibility 10.0 miles
Clouds Overcast 10000 ft
Dew Point 33 °F
Humidity 49%
Rainfall 0.00 in
Snow Depth Not available.
6:54 AM 5:48 PM
Waning Crescent, 4% visible
METAR KARA 062253Z AUTO 34005KT 10SM OVC100 12/M03 A3028 RMK AO2 SLP253 T01171028
Pressure 30.28 in
Visibility 10.0 miles
Clouds Overcast 10000 ft
Dew Point 33 °F
Humidity 49%
Rainfall 0.00 in
Snow Depth Not available.
6:54 AM 5:48 PM
Waning Crescent, 4% visible
METAR KARA 062253Z AUTO 34005KT 10SM OVC100 12/M03 A3028 RMK AO2 SLP253 T01171028

10-Day Weather Forecast

Almanac

Astronomy

Feb. 06, 2016 Rise Set
Actual Time
Civil Twilight
Nautical Twilight
Astronomical Twilight
Moon
Length of Visible Light
Length of Day
Tomorrow will be .
, % of the Moon is Illuminated

Today's Extremes

State Highs State Lows

Community

WunderPhotos

Upload Photos

1,891,094 photos uploaded!

WunderBlog® & News

Nearby

Air Quality

  Air Quality AQ Index Pollutant
Not available.

Snow Depth

Station Depth Elevation

Earthquake Activity

City Distance Mag. Time & Date
Minimum magnitude displayed is 2.5.

Coastal Water Temperatures

Place Temperature

Stations

Nearby Weather Stations

Station Location Temp. Windchill Dew Point Humidity Wind Precip. Elev Updated Type
                   

Watches & Warnings

There are currently no watches in effect.